createdAt,value
2022-08-07T00:02:36.291Z,1.90
2022-08-07T00:05:00.599Z,2.40
2022-08-07T00:07:40.292Z,3.72
2022-08-07T00:10:26.944Z,3.95
2022-08-07T00:13:00.334Z,2.25
2022-08-07T00:15:38.619Z,2.20
2022-08-07T00:18:19.412Z,2.75
2022-08-07T00:20:50.305Z,2.70
2022-08-07T00:23:21.435Z,3.20
2022-08-07T00:25:52.093Z,2.15
2022-08-07T00:28:33.502Z,4.80
2022-08-07T00:31:12.249Z,2.47
2022-08-07T00:33:42.360Z,4.63
2022-08-07T00:36:11.101Z,2.10
2022-08-07T00:38:42.012Z,3.20
2022-08-07T00:41:14.718Z,3.50
2022-08-07T00:44:00.579Z,2.35
2022-08-07T00:46:32.910Z,2.08
2022-08-07T00:49:02.904Z,3.50
2022-08-07T00:51:56.691Z,3.60
2022-08-07T00:54:22.672Z,3.97
2022-08-07T00:56:52.407Z,2.75
2022-08-07T00:59:32.657Z,3.30
2022-08-07T01:02:06.267Z,2.85
2022-08-07T01:04:43.982Z,2.25
2022-08-07T01:07:13.368Z,3.97
2022-08-07T01:10:07.126Z,2.78
2022-08-07T01:12:32.950Z,3.33
2022-08-07T01:15:03.875Z,2.45
2022-08-07T01:17:34.311Z,3.13
2022-08-07T01:20:09.242Z,3.35
2022-08-07T01:22:47.045Z,2.67
2022-08-07T01:25:53.742Z,2.47
2022-08-07T01:28:16.441Z,3.20
2022-08-07T01:30:46.371Z,2.50
2022-08-07T01:33:16.696Z,3.00
2022-08-07T01:35:54.193Z,2.42
2022-08-07T01:38:36.984Z,2.88
2022-08-07T01:41:26.139Z,3.97
2022-08-07T01:43:58.449Z,2.38
2022-08-07T01:46:28.135Z,2.67
2022-08-07T01:49:00.097Z,3.08
2022-08-07T01:52:02.301Z,2.42
2022-08-07T01:54:33.287Z,3.70
2022-08-07T01:57:20.693Z,2.50
2022-08-07T01:59:58.278Z,2.60
2022-08-07T02:03:11.466Z,2.80
2022-08-07T02:05:42.957Z,3.38
2022-08-07T02:08:21.878Z,3.88
2022-08-07T02:10:58.565Z,2.30
2022-08-07T02:13:57.841Z,2.55
2022-08-07T02:16:33.057Z,3.00
2022-08-07T02:19:05.712Z,3.28
2022-08-07T02:21:58.529Z,4.60
2022-08-07T02:24:30.103Z,3.58
2022-08-07T02:27:03.576Z,3.72
2022-08-07T02:29:36.903Z,2.53
2022-08-07T02:32:23.208Z,2.67
2022-08-07T02:34:53.280Z,6.78
2022-08-07T02:37:27.730Z,3.65
2022-08-07T02:40:29.788Z,3.53
2022-08-07T02:43:00.818Z,5.22
2022-08-07T02:46:00.219Z,3.40
2022-08-07T02:48:21.605Z,3.97
2022-08-07T02:50:55.284Z,3.95
2022-08-07T02:53:38.322Z,3.28
2022-08-07T02:56:21.185Z,3.15
2022-08-07T02:58:55.385Z,3.03
2022-08-07T03:01:35.979Z,3.35
2022-08-07T03:04:14.684Z,3.03
2022-08-07T03:06:48.169Z,3.25
2022-08-07T03:09:42.434Z,2.92
2022-08-07T03:12:21.816Z,3.47
2022-08-07T03:15:02.432Z,3.13
2022-08-07T03:17:53.667Z,3.42
2022-08-07T03:20:25.189Z,3.28
2022-08-07T03:22:55.975Z,3.65
2022-08-07T03:25:32.450Z,3.15
2022-08-07T03:28:38.173Z,3.78
2022-08-07T03:31:42.074Z,4.63
2022-08-07T03:34:18.611Z,3.78
2022-08-07T03:36:54.181Z,4.85
2022-08-07T03:39:46.288Z,4.43
2022-08-07T03:42:18.306Z,4.78
2022-08-07T03:44:57.859Z,5.30
2022-08-07T03:47:48.222Z,5.32
2022-08-07T03:50:23.282Z,5.53
2022-08-07T03:52:55.281Z,5.68
2022-08-07T03:55:24.404Z,4.63
2022-08-07T03:59:05.486Z,4.20
2022-08-07T04:01:04.623Z,4.25
2022-08-07T04:03:49.592Z,4.10
2022-08-07T04:06:36.200Z,4.50
2022-08-07T04:09:05.748Z,4.25
2022-08-07T04:12:24.031Z,5.70
2022-08-07T04:14:38.401Z,4.00
2022-08-07T04:17:20.401Z,4.78
2022-08-07T04:19:55.035Z,5.30
2022-08-07T04:22:29.648Z,5.43
2022-08-07T04:25:02.640Z,6.55
2022-08-07T04:27:35.972Z,4.93
2022-08-07T04:30:21.519Z,4.78
2022-08-07T04:33:08.589Z,4.55
2022-08-07T04:35:41.768Z,4.85
2022-08-07T04:38:14.943Z,4.32
2022-08-07T04:40:52.986Z,3.93
2022-08-07T04:44:10.266Z,5.07
2022-08-07T04:46:36.000Z,5.95
2022-08-07T04:49:37.738Z,5.65
2022-08-07T04:52:15.655Z,4.70
2022-08-07T04:54:58.113Z,4.80
2022-08-07T04:58:10.081Z,5.55
2022-08-07T05:00:32.501Z,6.45
2022-08-07T05:03:16.875Z,5.35
2022-08-07T05:06:19.510Z,4.95
2022-08-07T05:09:02.139Z,4.88
2022-08-07T05:14:52.167Z,4.95
2022-08-07T05:17:51.742Z,4.40
2022-08-07T05:20:23.861Z,5.53
2022-08-07T05:22:57.856Z,5.38
2022-08-07T05:26:10.938Z,5.18
2022-08-07T05:28:23.069Z,4.43
2022-08-07T05:30:59.487Z,4.53
2022-08-07T05:33:30.700Z,5.07
2022-08-07T05:36:08.084Z,5.22
2022-08-07T05:38:59.663Z,4.88
2022-08-07T05:42:01.779Z,4.80
2022-08-07T05:44:29.636Z,5.22
2022-08-07T05:47:01.227Z,5.53
2022-08-07T05:49:40.849Z,7.85
2022-08-07T05:52:11.800Z,6.28
2022-08-07T05:54:53.371Z,5.63
2022-08-07T05:57:29.849Z,5.80
2022-08-07T06:00:01.591Z,4.10
2022-08-07T06:02:42.568Z,4.82
2022-08-07T06:05:18.221Z,4.38
2022-08-07T06:08:13.682Z,4.88
2022-08-07T06:10:42.976Z,4.05
2022-08-07T06:13:15.525Z,3.65
2022-08-07T06:15:46.727Z,4.13
2022-08-07T06:18:24.955Z,4.68
2022-08-07T06:22:15.936Z,3.45
2022-08-07T06:24:46.199Z,5.85
2022-08-07T06:26:35.219Z,4.50
2022-08-07T06:29:06.523Z,3.50
2022-08-07T06:31:46.624Z,3.92
2022-08-07T06:34:20.824Z,3.75
2022-08-07T06:36:51.824Z,3.17
2022-08-07T06:40:17.475Z,3.20
2022-08-07T06:42:19.173Z,4.28
2022-08-07T06:45:17.986Z,2.85
2022-08-07T06:47:58.539Z,2.63
2022-08-07T06:50:35.992Z,3.92
2022-08-07T06:53:49.192Z,3.05
2022-08-07T06:56:01.442Z,5.20
2022-08-07T06:58:35.328Z,4.07
2022-08-07T07:01:16.459Z,2.80
2022-08-07T07:03:48.129Z,2.80
2022-08-07T07:06:23.870Z,4.18
2022-08-07T07:08:54.874Z,2.08
2022-08-07T07:12:07.724Z,2.28
2022-08-07T07:14:17.392Z,3.03
2022-08-07T07:16:53.589Z,2.60
2022-08-07T07:19:57.086Z,4.43
2022-08-07T07:22:36.590Z,2.28
2022-08-07T07:26:30.758Z,2.60
2022-08-07T07:28:07.561Z,1.70
2022-08-07T07:33:31.434Z,1.95
2022-08-07T07:36:05.535Z,2.60
2022-08-07T07:38:43.574Z,2.78
2022-08-07T07:41:17.535Z,3.20
2022-08-07T07:44:13.920Z,1.83
2022-08-07T07:46:54.684Z,1.55
2022-08-07T07:50:36.410Z,1.30
2022-08-07T07:52:27.561Z,2.63
2022-08-07T07:55:21.964Z,1.50
2022-08-07T07:57:54.183Z,3.13
2022-08-07T08:00:43.353Z,1.73
2022-08-07T08:04:09.966Z,2.65
2022-08-07T08:06:24.407Z,2.05
2022-08-07T08:08:54.340Z,1.30
2022-08-07T08:11:59.319Z,2.47
2022-08-07T08:14:26.238Z,3.33
2022-08-07T08:20:18.824Z,1.77
2022-08-07T08:23:02.571Z,1.67
2022-08-07T08:25:52.463Z,2.05
2022-08-07T08:28:38.148Z,1.75
2022-08-07T08:31:30.025Z,1.38
2022-08-07T08:34:10.632Z,1.50
2022-08-07T08:36:57.891Z,1.45
2022-08-07T08:39:39.667Z,0.82
2022-08-07T08:42:27.006Z,1.50
2022-08-07T08:45:06.569Z,1.00
2022-08-07T08:48:13.966Z,1.48
2022-08-07T08:50:51.623Z,1.30
2022-08-07T08:53:38.142Z,1.75
2022-08-07T08:56:12.629Z,0.88
2022-08-07T08:58:54.554Z,2.83
2022-08-07T09:01:58.484Z,1.58
2022-08-07T09:04:39.498Z,2.72
2022-08-07T09:07:15.460Z,1.65
2022-08-07T09:09:59.653Z,1.33
2022-08-07T09:12:57.873Z,0.90
2022-08-07T09:16:25.844Z,0.85
2022-08-07T09:19:07.063Z,1.42
2022-08-07T09:24:31.147Z,1.52
2022-08-07T09:25:25.702Z,1.55
2022-08-07T09:28:03.267Z,1.77
2022-08-07T09:30:57.712Z,1.83
2022-08-07T09:33:57.580Z,1.35
2022-08-07T09:37:01.045Z,0.95
2022-08-07T09:39:54.475Z,2.78
2022-08-07T09:42:43.332Z,1.20
2022-08-07T09:47:25.317Z,1.30
2022-08-07T09:50:02.070Z,1.38
2022-08-07T09:52:16.044Z,0.88
2022-08-07T09:54:47.119Z,1.23
2022-08-07T09:58:03.437Z,1.48
2022-08-07T10:00:50.566Z,1.23
2022-08-07T10:04:03.606Z,1.45
2022-08-07T10:06:55.851Z,1.42
2022-08-07T10:10:00.739Z,0.80
2022-08-07T10:13:29.743Z,1.17
2022-08-07T10:16:19.176Z,0.50
2022-08-07T10:19:38.505Z,1.83
2022-08-07T10:22:36.809Z,0.98
2022-08-07T10:25:22.871Z,0.68
2022-08-07T10:28:27.872Z,1.80
2022-08-07T10:31:45.314Z,0.68
2022-08-07T10:34:31.850Z,0.85
2022-08-07T10:38:00.559Z,1.30
2022-08-07T10:40:34.075Z,1.63
2022-08-07T10:43:11.360Z,1.00
2022-08-07T10:45:57.616Z,1.17
2022-08-07T10:48:41.466Z,1.27
2022-08-07T10:51:39.485Z,0.50
2022-08-07T10:54:17.386Z,1.88
2022-08-07T10:56:55.870Z,1.98
2022-08-07T10:59:47.513Z,1.70
2022-08-07T11:02:33.185Z,1.20
2022-08-07T11:05:35.743Z,1.88
2022-08-07T11:11:37.680Z,1.05
2022-08-07T11:14:45.535Z,0.80
2022-08-07T11:17:23.420Z,0.50
2022-08-07T11:20:19.545Z,1.85
2022-08-07T11:23:01.796Z,2.40
2022-08-07T11:26:06.341Z,1.05
2022-08-07T11:31:25.922Z,0.93
2022-08-07T11:34:00.209Z,1.02
2022-08-07T11:36:57.033Z,1.17
2022-08-07T11:40:00.233Z,0.75
2022-08-07T11:42:45.987Z,0.75
2022-08-07T11:45:35.435Z,1.08
2022-08-07T11:48:44.169Z,0.63
2022-08-07T11:51:46.588Z,0.68
2022-08-07T11:55:18.984Z,1.77
